Time;durP1;ratioP1;P1;durP2;ratioP2;P2;SDS_P1;SDS_P2;PMS_P1;PMS_P2;Temp;Humidity;BMP_temperature;BMP_pressure;BME280_temperature;BME280_humidity;BME280_pressure;Samples;Min_cycle;Max_cycle;Signal;HPM_P1;HPM_P2
2022/05/30 00:04:44;;;;;;;6.00;2.33;;;13.60;62.40;;;16.65;47.43;101135.25;5171680;27;20663;-61
2022/05/30 00:07:11;;;;;;;4.10;1.70;;;13.60;61.90;;;16.63;46.80;101137.28;5127162;28;20203;-61
2022/05/30 00:09:37;;;;;;;5.23;1.30;;;13.60;60.90;;;16.59;46.58;101144.06;5131153;28;20286;-61
2022/05/30 00:12:05;;;;;;;4.77;1.87;;;13.60;60.40;;;16.55;47.12;101148.13;5122359;28;20200;-62
2022/05/30 00:14:33;;;;;;;5.20;1.57;;;13.60;61.20;;;16.51;46.48;101136.22;5089966;28;20273;-63
2022/05/30 00:17:00;;;;;;;7.77;1.63;;;13.60;60.20;;;16.48;46.11;101137.44;4991303;28;20641;-62
2022/05/30 00:19:27;;;;;;;4.00;1.40;;;13.50;59.60;;;16.47;46.37;101135.00;4959214;28;20264;-63
2022/05/30 00:21:56;;;;;;;4.03;1.20;;;13.50;60.00;;;16.47;45.99;101135.84;4999264;28;20199;-63
2022/05/30 00:24:25;;;;;;;4.30;1.20;;;13.50;59.40;;;16.49;46.00;101135.63;4998178;28;20219;-63
2022/05/30 00:29:29;;;;;;;3.10;1.90;;;13.50;59.00;;;16.49;45.19;101135.63;5173147;27;20959;-61
2022/05/30 00:31:56;;;;;;;1.80;1.17;;;13.60;58.70;;;16.51;44.71;101128.25;5152228;27;20206;-63
2022/05/30 00:34:24;;;;;;;3.43;1.50;;;13.60;57.50;;;16.52;44.26;101124.63;5151488;27;20194;-61
2022/05/30 00:36:51;;;;;;;4.00;1.20;;;13.60;58.10;;;16.54;43.68;101125.25;5148722;27;20232;-61
2022/05/30 00:39:17;;;;;;;2.47;1.20;;;13.60;55.90;;;16.54;42.65;101122.56;5130579;27;20530;-65
2022/05/30 00:41:45;;;;;;;3.00;1.33;;;13.50;55.30;;;16.51;42.34;101123.81;5040851;28;20665;-63
2022/05/30 00:44:12;;;;;;;3.63;1.47;;;13.50;54.40;;;16.49;42.19;101119.69;5001187;28;20702;-62
2022/05/30 00:46:46;;;;;;;3.10;1.27;;;13.50;54.10;;;16.46;42.39;101114.75;4856817;29;20634;-60
2022/05/30 00:49:11;;;;;;;3.40;1.50;;;13.50;55.20;;;16.50;42.86;101108.00;4815726;29;20328;-60
2022/05/30 00:53:26;;;;;;;4.40;1.07;;;13.50;56.40;;;16.57;42.75;101111.53;5172738;27;20657;-59
2022/05/30 00:55:57;;;;;;;2.93;1.40;;;13.60;55.20;;;16.64;43.02;101112.38;5116636;28;20223;-62
2022/05/30 00:58:29;;;;;;;3.07;1.33;;;13.70;55.80;;;16.72;42.81;101109.47;5063515;28;20208;-62
2022/05/30 01:00:56;;;;;;;4.07;1.50;;;13.70;55.40;;;16.78;42.15;101108.69;5086381;28;20282;-62
2022/05/30 01:08:55;;;;;;;3.27;1.03;;;13.90;54.40;;;16.95;41.61;101098.44;4863178;29;20198;-63
2022/05/30 01:11:21;;;;;;;1.73;0.90;;;14.00;54.10;;;16.98;41.17;101098.81;4760908;29;20234;-62
2022/05/30 01:13:47;;;;;;;2.03;1.03;;;14.00;53.00;;;17.00;40.81;101096.75;4573733;30;20236;-62
2022/05/30 01:18:56;;;;;;;2.63;1.40;;;14.10;53.00;;;17.01;40.59;101106.38;5172791;27;20392;-63
2022/05/30 01:22:01;;;;;;;3.57;1.47;;;14.00;52.60;;;16.89;41.89;101105.38;5152204;27;20198;-62
2022/05/30 01:24:43;;;;;;;5.33;1.77;;;14.00;54.80;;;16.81;42.75;101106.41;5072337;28;20223;-63
2022/05/30 01:27:44;;;;;;;4.07;1.60;;;13.90;55.70;;;16.72;43.21;101106.81;5010569;28;20199;-63
2022/05/30 01:30:15;;;;;;;4.53;1.53;;;13.80;56.30;;;16.71;43.97;101103.34;4934214;29;20201;-61
2022/05/30 01:32:43;;;;;;;5.53;1.47;;;13.80;57.10;;;16.71;44.01;101100.69;4915373;29;20242;-63
2022/05/30 01:35:10;;;;;;;4.87;1.70;;;13.70;57.50;;;16.71;44.74;101107.88;4885826;29;20317;-62
2022/05/30 01:38:53;;;;;;;5.47;1.73;;;13.70;58.10;;;16.58;45.10;101100.69;4857330;29;20232;-63
2022/05/30 01:43:56;;;;;;;7.83;2.00;;;13.70;58.70;;;16.62;46.22;101103.75;5153923;27;20631;-59
2022/05/30 01:46:26;;;;;;;7.30;2.10;;;13.60;59.80;;;16.58;45.84;101097.22;5113862;28;20218;-63
2022/05/30 01:48:53;;;;;;;6.83;2.10;;;13.60;60.30;;;16.54;46.25;101098.66;5126403;27;20295;-62
2022/05/30 01:51:22;;;;;;;5.47;2.27;;;13.50;60.30;;;16.52;46.33;101095.38;5149485;27;20205;-62
2022/05/30 01:53:50;;;;;;;5.70;2.23;;;13.50;60.60;;;16.50;46.61;101094.72;5127597;27;20279;-62
2022/05/30 01:56:17;;;;;;;10.60;1.93;;;13.50;60.80;;;16.48;46.60;101096.78;5095813;28;20675;-61
2022/05/30 01:58:45;;;;;;;5.67;2.17;;;13.50;61.20;;;16.47;46.76;101095.16;5083696;28;20207;-66
2022/05/30 02:02:45;;;;;;;10.53;2.27;;;13.40;61.40;;;16.33;47.40;101093.50;5065475;28;20201;-61
2022/05/30 02:07:50;;;;;;;3.93;1.60;;;13.50;61.80;;;16.37;47.58;101105.34;5160422;27;20635;-63
2022/05/30 02:10:17;;;;;;;9.17;2.30;;;13.40;62.10;;;16.38;47.69;101096.38;5131375;28;20191;-61
2022/05/30 02:12:44;;;;;;;4.97;1.53;;;13.40;62.20;;;16.37;47.74;101095.56;5131416;28;20206;-61
2022/05/30 02:15:10;;;;;;;4.67;1.87;;;13.40;62.40;;;16.35;47.74;101096.78;5118709;27;20291;-64
2022/05/30 02:17:37;;;;;;;8.67;2.17;;;13.40;62.30;;;16.32;47.78;101091.84;5076153;28;20658;-63
2022/05/30 02:20:06;;;;;;;7.73;1.90;;;13.30;62.30;;;16.27;47.62;101097.78;5013344;28;20196;-63
2022/05/30 02:22:33;;;;;;;7.93;2.10;;;13.30;62.50;;;16.23;47.91;101094.72;5019921;28;20263;-63
2022/05/30 02:27:38;;;;;;;6.27;2.20;;;13.30;62.60;;;16.21;48.15;101085.31;5161967;27;20640;-62
2022/05/30 02:30:06;;;;;;;8.50;2.33;;;13.30;63.10;;;16.20;48.09;101089.00;5130956;28;20687;-63
2022/05/30 02:32:33;;;;;;;7.10;2.43;;;13.20;63.00;;;16.18;48.13;101096.34;5130572;28;20195;-64
2022/05/30 02:37:45;;;;;;;5.17;2.27;;;13.20;63.30;;;16.13;48.46;101093.47;5035242;28;20233;-64
2022/05/30 02:40:12;;;;;;;8.40;2.30;;;13.20;63.40;;;16.10;48.88;101088.56;5049230;28;20216;-65
2022/05/30 02:42:40;;;;;;;5.63;2.03;;;13.10;63.70;;;16.06;48.59;101088.16;5086215;28;20200;-63
2022/05/30 02:45:08;;;;;;;4.97;1.93;;;13.10;63.90;;;16.05;48.58;101089.16;4922142;28;20263;-63
2022/05/30 02:47:50;;;;;;;8.53;2.40;;;13.10;63.90;;;16.02;49.06;101086.91;5172719;27;20899;-61
2022/05/30 02:50:17;;;;;;;9.23;2.50;;;13.10;64.20;;;16.03;48.82;101083.25;5136147;27;20198;-62
2022/05/30 02:52:43;;;;;;;7.87;2.70;;;13.10;64.20;;;16.03;49.00;101085.91;5104393;28;20204;-64
2022/05/30 02:55:10;;;;;;;4.67;1.73;;;13.10;64.30;;;16.02;49.14;101086.91;5091463;28;20223;-63
2022/05/30 02:57:36;;;;;;;9.07;2.23;;;13.10;64.50;;;16.05;48.94;101091.81;5097366;28;20201;-62
2022/05/30 03:00:05;;;;;;;7.00;2.37;;;13.10;64.60;;;16.07;49.33;101100.41;4970868;28;20376;-63
2022/05/30 03:02:32;;;;;;;8.23;2.77;;;13.10;64.50;;;16.10;49.13;101099.19;4973628;28;20199;-64
2022/05/30 03:04:59;;;;;;;4.40;1.93;;;13.10;64.60;;;16.09;49.30;101103.66;4988890;28;20228;-64
2022/05/30 03:07:38;;;;;;;13.00;3.07;;;13.10;64.50;;;16.09;49.29;101097.56;5162644;27;20643;-64
2022/05/30 03:10:05;;;;;;;9.63;2.90;;;13.10;64.30;;;16.06;49.51;101098.78;5149836;27;20224;-63
2022/05/30 03:12:32;;;;;;;7.47;2.23;;;13.10;64.60;;;16.03;49.25;101101.84;5151264;27;20222;-64
2022/05/30 03:14:59;;;;;;;7.17;2.50;;;13.10;64.60;;;16.01;49.27;101105.69;5137229;27;20288;-64
2022/05/30 03:17:25;;;;;;;6.40;2.23;;;13.00;64.50;;;15.96;49.20;101108.13;5108679;28;20203;-63
2022/05/30 03:19:52;;;;;;;4.93;2.20;;;13.00;64.50;;;15.92;49.23;101097.13;5027156;28;20278;-63
2022/05/30 03:22:20;;;;;;;8.33;2.90;;;13.00;64.70;;;15.89;49.45;101094.84;5023286;28;20301;-64
2022/05/30 03:24:47;;;;;;;5.10;2.23;;;13.00;64.80;;;15.88;49.51;101097.72;4936814;28;20238;-64
2022/05/30 03:27:14;;;;;;;7.57;2.10;;;12.90;64.80;;;15.87;49.44;101104.88;4923998;28;20281;-62
2022/05/30 03:32:20;;;;;;;6.20;2.70;;;12.90;65.10;;;15.84;49.75;101107.06;5173089;27;20630;-62
2022/05/30 03:34:49;;;;;;;5.27;2.30;;;12.90;65.20;;;15.83;49.99;101106.25;5121381;28;20270;-62
2022/05/30 03:37:15;;;;;;;4.47;2.60;;;12.90;65.30;;;15.84;49.84;101107.06;5108514;28;20199;-63
2022/05/30 03:39:42;;;;;;;6.37;2.43;;;12.90;65.30;;;15.83;49.60;101106.25;5110066;28;20558;-65
2022/05/30 03:42:13;;;;;;;4.47;2.00;;;12.90;65.30;;;15.85;50.14;101109.56;5071779;28;20210;-64
2022/05/30 03:44:40;;;;;;;7.97;2.20;;;12.90;65.30;;;15.86;49.85;101108.53;5059113;28;20229;-62
2022/05/30 03:47:07;;;;;;;8.50;2.70;;;12.90;65.40;;;15.88;49.69;101106.47;5090639;28;20230;-63
2022/05/30 03:49:35;;;;;;;4.30;2.60;;;12.90;65.30;;;15.89;49.75;101113.44;5004931;28;20275;-62
2022/05/30 03:52:01;;;;;;;8.07;2.47;;;12.90;65.40;;;15.89;49.75;101110.78;4916091;29;20273;-62
2022/05/30 03:57:06;;;;;;;6.83;2.60;;;12.90;65.30;;;15.94;49.63;101121.63;5173595;27;20626;-63
2022/05/30 03:59:33;;;;;;;5.93;2.10;;;12.90;64.90;;;15.94;49.47;101121.63;5144839;27;20283;-65
2022/05/30 04:02:00;;;;;;;4.37;2.13;;;12.90;64.80;;;15.95;49.25;101125.09;5146797;27;20646;-63
2022/05/30 04:04:27;;;;;;;10.43;2.27;;;12.90;64.60;;;15.93;49.17;101122.63;5146140;27;20285;-63
2022/05/30 04:06:55;;;;;;;6.70;2.10;;;12.90;64.70;;;15.95;49.19;101122.44;5119587;28;20279;-63
2022/05/30 04:09:22;;;;;;;4.27;2.43;;;12.90;64.40;;;15.95;49.39;101125.91;5088498;28;20219;-62
2022/05/30 04:11:49;;;;;;;6.70;2.13;;;12.90;64.40;;;15.98;49.33;101117.53;5113677;28;20223;-63
2022/05/30 04:14:17;;;;;;;9.73;2.60;;;12.90;64.20;;;16.00;49.01;101128.78;5056566;28;20285;-63
2022/05/30 04:16:43;;;;;;;5.87;2.03;;;12.90;64.20;;;16.02;49.02;101129.38;4949568;28;20275;-62
2022/05/30 04:21:46;;;;;;;7.90;2.80;;;12.90;64.30;;;16.09;49.03;101129.44;5173695;27;20690;-62
2022/05/30 04:24:13;;;;;;;5.07;2.43;;;13.00;64.40;;;16.11;48.81;101128.22;5152499;27;20248;-62
2022/05/30 04:26:40;;;;;;;7.10;3.10;;;13.00;64.20;;;16.15;49.00;101126.78;5097505;28;20287;-64
2022/05/30 04:29:07;;;;;;;7.77;2.97;;;13.10;64.10;;;16.19;48.56;101120.03;5130366;28;20195;-62
2022/05/30 04:31:34;;;;;;;6.70;2.77;;;13.10;63.70;;;16.20;48.63;101120.88;5102536;28;20596;-62
2022/05/30 04:34:03;;;;;;;5.20;2.67;;;13.10;63.50;;;16.23;48.24;101126.59;5022989;28;20242;-62
2022/05/30 04:36:30;;;;;;;4.33;2.63;;;13.10;63.90;;;16.30;48.37;101123.13;4948410;28;20623;-63
2022/05/30 04:38:58;;;;;;;6.50;2.67;;;13.20;63.70;;;16.35;48.00;101120.69;4897911;29;20206;-63
2022/05/30 04:41:24;;;;;;;6.33;2.77;;;13.20;63.30;;;16.38;47.92;101128.25;4940784;28;20232;-62
2022/05/30 04:46:29;;;;;;;7.93;2.60;;;13.20;62.80;;;16.41;47.33;101133.97;5153688;27;20647;-64
2022/05/30 04:48:55;;;;;;;6.27;2.53;;;13.20;62.60;;;16.42;47.81;101129.47;5143339;27;20202;-64
2022/05/30 04:51:29;;;;;;;8.50;2.23;;;13.20;63.00;;;16.42;47.66;101134.78;5114897;28;20270;-63
2022/05/30 04:53:55;;;;;;;10.87;2.53;;;13.30;62.80;;;16.40;47.83;101131.53;5129195;28;20707;-62
2022/05/30 04:56:22;;;;;;;5.00;2.50;;;13.30;63.00;;;16.41;47.60;101139.28;5096113;28;20225;-63
2022/05/30 04:58:50;;;;;;;6.23;2.30;;;13.30;62.60;;;16.44;47.63;101146.03;5101858;28;20194;-64
2022/05/30 05:01:17;;;;;;;6.53;3.00;;;13.30;63.00;;;16.48;47.73;101140.13;5106294;28;20188;-63
2022/05/30 05:05:15;;;;;;;5.37;2.73;;;13.30;62.80;;;16.41;47.45;101143.78;5012590;28;20201;-63
2022/05/30 05:10:44;;;;;;;6.80;2.83;;;13.30;62.20;;;16.46;47.81;101152.78;5172968;27;20665;-62
2022/05/30 05:13:10;;;;;;;5.27;2.33;;;13.40;62.80;;;16.54;47.64;101146.50;5112974;28;20270;-62
2022/05/30 05:15:37;;;;;;;4.50;1.90;;;13.40;62.40;;;16.59;47.25;101147.50;5111206;28;20603;-62
2022/05/30 05:18:04;;;;;;;3.70;1.97;;;13.40;62.20;;;16.63;47.16;101148.75;5086456;28;20281;-62
2022/05/30 05:20:36;;;;;;;5.80;2.20;;;13.40;61.80;;;16.64;46.71;101154.91;5004648;28;20536;-63
2022/05/30 05:23:04;;;;;;;7.03;2.17;;;13.40;61.70;;;16.67;47.25;101155.28;4885249;29;20278;-63
2022/05/30 05:25:30;;;;;;;6.97;2.97;;;13.50;61.90;;;16.71;46.79;101158.38;4841463;29;20311;-63
2022/05/30 05:27:56;;;;;;;5.93;2.63;;;13.50;62.10;;;16.72;46.79;101152.84;4675373;30;20217;-63
2022/05/30 05:33:00;;;;;;;6.70;2.33;;;13.50;61.70;;;16.81;46.69;101156.94;5173911;27;20630;-63
2022/05/30 05:35:27;;;;;;;4.30;2.00;;;13.60;61.80;;;16.86;46.45;101157.13;5141222;27;20207;-64
2022/05/30 05:37:55;;;;;;;3.20;2.00;;;13.60;61.50;;;16.89;46.08;101153.25;5149355;27;20194;-65
2022/05/30 05:40:22;;;;;;;4.47;2.27;;;13.60;61.00;;;16.91;46.42;101161.84;5171453;27;20268;-65
2022/05/30 05:42:49;;;;;;;5.63;2.17;;;13.70;61.20;;;16.91;46.05;101162.66;5128606;27;20290;-65
2022/05/30 05:45:16;;;;;;;3.83;1.63;;;13.60;61.00;;;16.95;46.38;101163.03;5089463;28;20299;-65
2022/05/30 05:47:42;;;;;;;3.90;2.00;;;13.70;61.20;;;17.01;46.13;101162.25;5016224;28;20223;-64
2022/05/30 05:50:10;;;;;;;4.93;2.20;;;13.70;61.00;;;17.06;45.96;101150.97;5013589;28;20215;-64
2022/05/30 05:55:10;;;;;;;3.20;1.90;;;13.80;60.70;;;17.11;46.06;101161.81;5164996;27;20405;-63
2022/05/30 05:57:37;;;;;;;6.70;1.90;;;13.80;61.00;;;17.17;45.88;101164.47;5130688;28;20270;-64
2022/05/30 06:00:06;;;;;;;2.83;1.80;;;13.90;60.80;;;17.26;45.63;101165.06;5077110;28;20229;-63
2022/05/30 06:02:33;;;;;;;7.00;2.40;;;13.90;60.50;;;17.30;45.34;101167.13;5107241;28;20226;-63
2022/05/30 06:05:00;;;;;;;3.47;1.83;;;14.00;60.10;;;17.33;45.01;101166.69;5056343;28;20273;-63
2022/05/30 06:07:27;;;;;;;3.93;2.00;;;14.00;59.70;;;17.37;45.25;101172.44;5036036;28;20593;-63
2022/05/30 06:09:53;;;;;;;4.17;2.23;;;14.00;59.80;;;17.42;45.03;101173.41;4995304;28;20196;-62
2022/05/30 06:13:51;;;;;;;5.47;1.97;;;14.10;59.70;;;17.42;44.50;101169.97;4938291;28;20260;-62
2022/05/30 06:18:57;;;;;;;5.53;2.47;;;14.20;59.10;;;17.63;44.35;101166.25;5175008;27;20634;-62
2022/05/30 06:21:27;;;;;;;2.80;1.63;;;14.30;59.20;;;17.72;44.27;101171.13;5112586;28;20361;-62
2022/05/30 06:23:55;;;;;;;6.37;2.33;;;14.30;58.70;;;17.80;43.99;101173.56;5110941;28;20195;-62
2022/05/30 06:26:25;;;;;;;4.63;2.70;;;14.40;58.80;;;17.87;43.96;101173.53;5101792;28;20235;-62
2022/05/30 06:28:58;;;;;;;3.07;1.70;;;14.50;58.50;;;17.93;43.61;101178.00;5066198;28;20218;-63
2022/05/30 06:31:29;;;;;;;4.40;2.73;;;14.50;58.40;;;17.97;43.47;101180.03;5027812;28;20190;-61
2022/05/30 06:34:01;;;;;;;4.67;2.30;;;14.50;58.20;;;18.03;43.37;101183.69;4891391;28;20203;-63
2022/05/30 06:36:27;;;;;;;5.63;2.20;;;14.60;58.60;;;18.08;43.38;101181.22;4684597;29;20263;-63
2022/05/30 06:41:33;;;;;;;5.53;2.30;;;14.60;58.10;;;18.20;42.99;101190.16;5172094;27;20638;-64
2022/05/30 06:44:06;;;;;;;2.60;1.67;;;14.80;57.50;;;18.25;42.86;101188.50;5151564;27;20582;-62
2022/05/30 06:46:36;;;;;;;4.63;1.57;;;14.80;57.40;;;18.25;42.85;101187.69;5099106;28;20308;-62
2022/05/30 06:49:04;;;;;;;4.90;1.57;;;14.80;57.10;;;18.27;42.79;101190.94;5049954;28;20216;-63
2022/05/30 06:51:36;;;;;;;5.63;1.70;;;14.80;57.40;;;18.33;42.85;101189.28;4980199;28;20216;-63
2022/05/30 06:54:05;;;;;;;2.50;2.00;;;14.80;57.60;;;18.36;42.95;101187.00;4913380;28;20215;-62
2022/05/30 06:56:39;;;;;;;3.93;1.97;;;14.90;57.70;;;18.44;42.76;101189.41;4751298;30;20229;-62
2022/05/30 06:59:05;;;;;;;4.03;2.10;;;14.90;57.50;;;18.52;42.73;101189.19;4576496;30;20639;-65
2022/05/30 07:04:09;;;;;;;3.77;1.87;;;15.00;57.50;;;18.71;42.31;101193.56;5172110;27;20693;-62
2022/05/30 07:06:36;;;;;;;4.07;1.57;;;15.20;57.20;;;18.82;41.90;101192.06;5130601;27;20547;-62
2022/05/30 07:09:04;;;;;;;6.40;2.27;;;15.20;56.70;;;18.90;41.63;101197.94;5102349;28;20291;-61
2022/05/30 07:11:39;;;;;;;4.43;1.40;;;15.30;56.50;;;18.94;41.56;101187.66;5066147;28;20775;-62
2022/05/30 07:14:23;;;;;;;4.50;1.80;;;15.40;56.20;;;19.02;41.60;101194.56;5063116;28;20196;-61
2022/05/30 07:16:50;;;;;;;1.90;1.43;;;15.50;56.00;;;19.09;41.04;101192.66;5038203;28;20198;-66
2022/05/30 07:19:18;;;;;;;4.33;1.87;;;15.50;55.50;;;19.13;40.71;101197.34;5020678;28;20276;-63
2022/05/30 07:21:45;;;;;;;5.87;2.33;;;15.60;55.40;;;19.19;41.03;101207.13;4937841;28;20209;-63
2022/05/30 07:26:49;;;;;;;3.83;3.10;;;15.60;55.70;;;19.26;40.78;101202.53;5170433;27;20646;-63
2022/05/30 07:29:16;;;;;;;3.10;2.50;;;15.70;54.90;;;19.28;40.55;101199.66;5151307;27;20236;-63
2022/05/30 07:31:42;;;;;;;4.73;2.00;;;15.80;54.50;;;19.30;40.32;101197.59;5136232;27;20226;-62
2022/05/30 07:34:09;;;;;;;3.23;1.87;;;15.80;54.40;;;19.32;40.15;101195.50;5115352;28;20552;-62
2022/05/30 07:36:36;;;;;;;2.93;2.33;;;15.80;54.30;;;19.34;40.18;101191.59;5083552;28;20232;-61
2022/05/30 07:39:04;;;;;;;5.03;2.30;;;15.80;54.30;;;19.35;39.92;101198.53;4988988;28;20625;-62
2022/05/30 07:41:31;;;;;;;4.77;2.07;;;15.90;53.90;;;19.37;40.12;101201.03;4994901;28;20561;-61
2022/05/30 07:47:27;;;;;;;4.67;2.07;;;15.90;54.00;;;19.49;39.61;101201.94;5172044;27;20630;-62
2022/05/30 07:49:55;;;;;;;4.83;2.00;;;16.10;53.60;;;19.55;39.58;101201.06;5130247;27;20199;-63
2022/05/30 07:52:22;;;;;;;4.83;2.30;;;16.10;53.30;;;19.67;39.25;101206.47;5136033;27;20206;-62
2022/05/30 07:54:48;;;;;;;2.57;1.47;;;16.20;53.20;;;19.76;38.74;101200.59;5144809;27;20768;-62
2022/05/30 07:57:15;;;;;;;2.03;1.80;;;16.30;52.50;;;19.84;38.47;101200.31;5125397;27;20619;-63
2022/05/30 07:59:42;;;;;;;3.03;1.63;;;16.40;51.90;;;19.93;38.49;101203.50;5078791;28;20266;-62
2022/05/30 08:02:08;;;;;;;4.93;1.80;;;16.40;51.90;;;20.04;37.48;101198.19;5082408;28;20228;-62
2022/05/30 08:04:37;;;;;;;4.73;3.10;;;16.50;50.90;;;20.15;37.37;101202.81;5081233;28;20594;-63
2022/05/30 08:07:06;;;;;;;12.17;8.53;;;16.50;50.70;;;20.30;37.28;101209.63;5033654;28;20656;-62
2022/05/30 08:12:11;;;;;;;10.67;9.67;;;16.60;51.00;;;20.70;37.14;101205.34;5171501;27;21101;-63
2022/05/30 08:14:38;;;;;;;1.77;1.40;;;16.90;50.80;;;20.91;36.11;101197.59;5127352;28;20227;-62
2022/05/30 08:17:05;;;;;;;5.33;2.10;;;17.00;49.60;;;21.13;35.77;101205.09;5114759;28;20227;-63
2022/05/30 08:19:32;;;;;;;2.27;1.27;;;17.10;50.50;;;21.36;35.53;101192.50;5114186;27;20257;-63
2022/05/30 08:22:34;;;;;;;19.03;14.17;;;17.30;49.60;;;21.85;35.28;101195.69;5063221;28;20224;-63
2022/05/30 08:25:05;;;;;;;28.97;24.77;;;17.50;49.60;;;22.35;34.85;101199.38;5072746;28;20301;-61
2022/05/30 08:27:33;;;;;;;4.97;4.13;;;17.80;49.10;;;22.84;33.20;101193.28;5058134;28;20354;-62
2022/05/30 08:30:04;;;;;;;6.70;3.10;;;18.10;49.20;;;23.35;32.94;101194.06;4987460;28;20511;-62
2022/05/30 08:32:44;;;;;;;4.87;2.40;;;18.40;48.30;;;23.72;32.46;101195.13;4892828;29;20223;-62
2022/05/30 08:37:59;;;;;;;3.80;2.53;;;18.70;47.60;;;24.11;30.84;101199.38;5213858;27;20643;-64
2022/05/30 08:43:24;;;;;;;3.73;2.27;;;19.20;45.10;;;23.84;31.72;101193.13;5169494;27;20197;-64
2022/05/30 08:46:05;;;;;;;5.17;1.80;;;19.40;45.40;;;23.66;31.74;101196.13;5159038;27;20226;-62
2022/05/30 08:48:42;;;;;;;4.20;1.40;;;19.50;44.40;;;23.38;31.61;101193.59;5094929;28;20199;-63
2022/05/30 08:51:36;;;;;;;6.63;2.50;;;19.40;43.90;;;23.04;31.76;101194.66;4974955;28;20217;-62
2022/05/30 08:54:34;;;;;;;2.73;1.63;;;19.30;43.70;;;22.68;31.93;101194.09;4811812;29;20276;-62
2022/05/30 08:57:32;;;;;;;2.60;1.90;;;19.00;43.30;;;22.44;32.58;101203.28;4536604;30;20253;-62
2022/05/30 09:02:39;;;;;;;5.40;1.53;;;18.80;44.10;;;23.43;31.94;101213.28;5171836;27;20400;-61
2022/05/30 09:05:13;;;;;;;4.03;1.53;;;18.80;45.30;;;24.37;29.17;101213.09;5125970;27;20683;-61
2022/05/30 09:08:07;;;;;;;2.20;1.27;;;19.00;42.30;;;24.79;28.40;101211.41;5062363;28;20621;-61
2022/05/30 09:10:41;;;;;;;2.90;1.50;;;19.30;41.70;;;25.23;28.21;101206.59;5118783;27;20285;-63
2022/05/30 09:13:19;;;;;;;3.53;1.07;;;19.70;42.10;;;26.04;27.43;101207.84;5053906;28;20593;-63
2022/05/30 09:16:01;;;;;;;6.73;1.93;;;20.00;41.40;;;26.50;26.89;101197.97;4902937;29;20305;-63
2022/05/30 09:18:35;;;;;;;3.63;1.17;;;20.40;40.90;;;26.48;27.31;101198.22;4746242;29;20658;-63
2022/05/30 09:21:16;;;;;;;2.53;1.40;;;20.70;40.70;;;26.15;27.14;101196.81;4532544;31;20621;-62
2022/05/30 09:26:32;;;;;;;4.00;2.80;;;20.90;40.20;;;26.10;28.10;101198.69;5117871;27;20483;-61
2022/05/30 09:29:05;;;;;;;7.27;3.30;;;20.90;40.20;;;26.33;27.42;101206.34;5094137;28;20720;-64
2022/05/30 09:31:49;;;;;;;1.60;1.23;;;21.00;39.80;;;25.94;26.66;101202.41;5102414;28;20216;-62
2022/05/30 09:34:41;;;;;;;6.10;5.03;;;21.10;38.50;;;25.27;28.05;101205.81;5057068;28;20206;-62
2022/05/30 09:37:08;;;;;;;2.97;1.33;;;20.90;38.30;;;24.77;28.15;101210.84;4931695;28;20207;-62
2022/05/30 09:39:44;;;;;;;6.53;4.13;;;20.70;38.40;;;24.23;28.57;101201.94;4848240;29;20281;-63
2022/05/30 09:45:50;;;;;;;6.17;3.30;;;20.40;38.80;;;23.38;30.21;101204.34;5153420;27;20644;-62
2022/05/30 09:48:19;;;;;;;2.87;2.10;;;19.70;40.40;;;23.41;30.48;101204.69;5138888;27;20190;-62
2022/05/30 09:50:50;;;;;;;7.83;3.80;;;19.50;40.80;;;23.49;30.10;101201.53;5087650;28;20211;-62
2022/05/30 09:53:43;;;;;;;2.00;1.50;;;19.50;41.10;;;23.44;29.60;101206.03;5094395;28;20270;-62
2022/05/30 09:56:15;;;;;;;2.17;1.90;;;19.40;40.40;;;23.37;30.12;101208.06;5026432;28;20232;-62
2022/05/30 09:58:58;;;;;;;2.00;1.10;;;19.30;40.70;;;23.21;30.12;101208.88;4974666;28;20205;-62
2022/05/30 10:01:54;;;;;;;1.77;1.50;;;19.30;40.90;;;22.87;30.98;101214.28;4896892;29;20291;-61
2022/05/30 10:04:20;;;;;;;3.13;1.60;;;19.20;41.40;;;22.67;31.21;101219.31;4590467;30;20245;-61
2022/05/30 10:08:48;;;;;;;4.73;2.20;;;19.10;41.60;;;22.14;31.18;101221.50;5174423;27;20641;-62
2022/05/30 10:11:32;;;;;;;4.33;2.73;;;18.90;41.20;;;21.85;31.20;101217.97;5132395;27;20553;-60
2022/05/30 10:14:15;;;;;;;1.77;0.83;;;18.60;40.00;;;21.65;31.31;101230.09;5130258;27;20586;-62
2022/05/30 10:16:43;;;;;;;1.33;0.93;;;18.50;40.70;;;21.20;31.88;101227.22;5049921;28;20242;-61
2022/05/30 10:19:26;;;;;;;1.77;1.40;;;18.30;41.20;;;20.95;32.91;101227.38;4971729;28;20205;-62
2022/05/30 10:28:20;;;;;;;3.23;1.23;;;17.70;44.50;;;20.45;34.70;101228.75;4453501;31;20284;-67
2022/05/30 10:34:05;;;;;;;3.77;1.30;;;17.50;44.60;;;20.24;34.73;101236.22;5172112;27;20649;-62
2022/05/30 10:36:50;;;;;;;3.63;2.93;;;17.30;44.60;;;20.17;34.46;101238.16;5068502;28;20238;-64
2022/05/30 10:39:42;;;;;;;3.83;1.60;;;17.10;44.50;;;20.11;34.84;101244.38;5095574;28;20259;-63
2022/05/30 10:42:18;;;;;;;5.07;4.33;;;17.10;45.00;;;20.08;34.72;101244.84;5080611;28;20666;-61
2022/05/30 10:44:54;;;;;;;3.13;1.67;;;17.00;45.20;;;20.02;35.06;101250.25;5027707;28;20252;-60
2022/05/30 10:47:33;;;;;;;2.60;1.57;;;17.00;45.60;;;19.96;34.96;101246.63;4943500;28;20545;-61
2022/05/30 10:50:10;;;;;;;4.17;3.47;;;16.90;46.00;;;19.92;35.38;101249.97;4799228;29;20300;-62
2022/05/30 10:52:37;;;;;;;2.53;1.50;;;16.80;46.20;;;19.92;35.67;101245.41;4614626;30;20239;-60
2022/05/30 10:57:46;;;;;;;3.93;2.10;;;16.80;46.30;;;19.97;35.82;101242.91;5157028;27;20655;-61
2022/05/30 11:00:17;;;;;;;3.13;1.67;;;16.80;46.70;;;20.03;35.54;101246.53;5109837;28;20689;-62
2022/05/30 11:02:57;;;;;;;2.43;1.40;;;16.80;46.70;;;20.10;35.53;101244.59;5093954;28;20192;-62
2022/05/30 11:05:30;;;;;;;3.53;1.30;;;16.90;46.80;;;20.20;35.65;101253.75;5076903;28;20244;-62
2022/05/30 11:08:08;;;;;;;3.03;1.40;;;16.90;46.70;;;20.29;34.88;101254.28;4969596;28;20201;-62
2022/05/30 11:10:47;;;;;;;1.80;1.40;;;17.00;46.60;;;20.38;35.54;101252.91;4933839;28;20215;-62
2022/05/30 11:13:33;;;;;;;6.17;2.37;;;17.00;46.80;;;20.50;35.01;101260.97;4743001;29;20220;-62
2022/05/30 11:15:59;;;;;;;3.63;2.27;;;17.10;46.90;;;20.62;35.19;101261.84;4515539;31;20276;-65
2022/05/30 11:21:13;;;;;;;3.73;1.30;;;17.10;46.80;;;20.81;35.48;101261.56;5172181;27;20952;-63
2022/05/30 11:23:42;;;;;;;2.63;2.07;;;17.30;47.30;;;20.92;35.03;101258.09;5130911;27;20190;-62
2022/05/30 11:26:50;;;;;;;5.87;2.93;;;17.40;47.20;;;21.06;35.29;101261.41;5106879;28;20234;-62
2022/05/30 11:29:41;;;;;;;3.20;1.73;;;17.50;47.20;;;21.26;34.78;101259.22;5082118;28;21074;-67
2022/05/30 11:32:30;;;;;;;1.60;1.33;;;17.60;47.20;;;21.44;34.25;101267.13;4949262;28;20217;-66
2022/05/30 11:35:11;;;;;;;3.43;2.13;;;17.70;46.70;;;21.41;34.63;101264.13;4728693;29;20651;-65
2022/05/30 11:42:16;;;;;;;1.97;1.10;;;18.00;46.00;;;21.62;33.74;101268.06;5159421;27;20624;-65
2022/05/30 11:44:49;;;;;;;3.17;1.77;;;18.10;45.00;;;21.80;33.75;101265.28;5117229;28;20224;-65
2022/05/30 11:47:34;;;;;;;2.43;1.33;;;18.20;45.20;;;21.95;33.42;101262.94;5089974;28;20200;-65
2022/05/30 11:50:33;;;;;;;2.03;1.40;;;18.30;45.00;;;22.08;33.02;101262.69;5044719;28;20195;-63
2022/05/30 11:53:33;;;;;;;2.13;1.10;;;18.30;44.60;;;22.20;32.71;101261.59;4874334;29;20300;-63
2022/05/30 11:56:13;;;;;;;2.37;1.40;;;18.40;44.50;;;22.38;32.55;101251.72;4636809;30;20250;-63
2022/05/30 12:01:34;;;;;;;1.37;1.03;;;18.50;44.80;;;22.74;31.86;101260.25;5153372;27;20655;-62
2022/05/30 12:05:03;;;;;;;1.90;1.40;;;18.70;43.40;;;22.71;31.54;101258.03;5093913;28;20207;-61
2022/05/30 12:08:11;;;;;;;2.17;1.77;;;18.80;43.20;;;22.68;31.95;101263.88;5049406;28;20296;-62
2022/05/30 12:11:09;;;;;;;2.80;1.83;;;19.00;42.90;;;22.62;31.99;101258.66;4931967;28;20242;-64
2022/05/30 12:14:14;;;;;;;3.50;1.70;;;19.00;43.30;;;22.53;32.27;101266.28;4778434;29;20661;-64
2022/05/30 12:16:58;;;;;;;1.10;0.90;;;19.00;43.00;;;22.41;32.01;101264.69;4612200;30;20720;-63
2022/05/30 12:24:59;;;;;;;2.87;1.30;;;18.80;42.60;;;22.42;32.14;101264.44;5156258;27;21154;-62